Time;durP1;ratioP1;P1;durP2;ratioP2;P2;SDS_P1;SDS_P2;PMS_P1;PMS_P2;Temp;Humidity;BMP_temperature;BMP_pressure;BME280_temperature;BME280_humidity;BME280_pressure;Samples;Min_cycle;Max_cycle;Signal;HPM_P1;HPM_P2
2023/06/11 00:01:40;;;;;;;9.63;2.50;;;18.50;99.90;;;;;;5097735;28;20249;-61
2023/06/11 00:04:08;;;;;;;8.07;2.70;;;18.50;99.90;;;;;;5089992;28;20628;-61
2023/06/11 00:06:36;;;;;;;7.73;2.83;;;18.40;99.90;;;;;;5098292;28;20216;-61
2023/06/11 00:09:06;;;;;;;5.03;2.60;;;18.40;99.90;;;;;;5082064;28;20224;-61
2023/06/11 00:11:41;;;;;;;3.57;2.37;;;18.40;99.90;;;;;;5081110;28;20221;-61
2023/06/11 00:14:11;;;;;;;4.93;2.67;;;18.30;99.90;;;;;;5090806;28;20220;-61
2023/06/11 00:16:40;;;;;;;5.10;2.43;;;18.30;99.90;;;;;;5103338;28;20328;-59
2023/06/11 00:19:09;;;;;;;6.07;2.40;;;18.20;99.90;;;;;;5117984;28;20240;-61
2023/06/11 00:21:40;;;;;;;5.53;2.47;;;18.20;99.90;;;;;;5111889;28;20676;-61
2023/06/11 00:24:11;;;;;;;5.20;2.13;;;18.20;99.90;;;;;;5088877;28;20237;-61
2023/06/11 00:26:40;;;;;;;8.23;2.40;;;18.10;99.90;;;;;;5077285;28;20343;-61
2023/06/11 00:29:08;;;;;;;5.33;2.40;;;18.00;99.90;;;;;;5077219;28;20235;-61
2023/06/11 00:31:36;;;;;;;5.87;2.63;;;18.00;99.90;;;;;;5084853;28;20227;-61
2023/06/11 00:34:04;;;;;;;4.60;2.50;;;17.90;99.90;;;;;;5078271;28;20243;-60
2023/06/11 00:36:33;;;;;;;4.47;2.33;;;17.90;99.90;;;;;;5096717;28;20224;-61
2023/06/11 00:39:01;;;;;;;6.37;2.70;;;17.90;99.90;;;;;;5068964;28;20239;-61
2023/06/11 00:41:30;;;;;;;6.67;2.57;;;17.90;99.90;;;;;;5092464;28;20673;-61
2023/06/11 00:43:59;;;;;;;7.20;2.90;;;17.90;99.90;;;;;;5096957;28;20225;-61
2023/06/11 00:46:27;;;;;;;7.33;2.43;;;17.90;99.90;;;;;;5082155;28;20315;-60
2023/06/11 00:48:55;;;;;;;5.67;2.90;;;17.80;99.90;;;;;;5117081;28;20269;-61
2023/06/11 00:51:24;;;;;;;4.60;2.70;;;17.80;99.90;;;;;;5117324;28;20756;-60
2023/06/11 00:53:53;;;;;;;7.00;3.00;;;17.80;99.90;;;;;;5105767;28;20225;-61
2023/06/11 00:56:21;;;;;;;5.83;2.87;;;17.80;99.90;;;;;;5098046;28;20700;-61
2023/06/11 00:58:51;;;;;;;4.87;2.80;;;17.70;99.90;;;;;;5079062;28;20234;-61
2023/06/11 01:01:25;;;;;;;5.13;2.27;;;17.60;99.90;;;;;;5097385;28;20247;-61
2023/06/11 01:03:56;;;;;;;5.20;2.23;;;17.60;99.90;;;;;;5096983;28;20223;-60
2023/06/11 01:06:28;;;;;;;6.87;2.50;;;17.60;99.90;;;;;;5079416;28;20786;-61
2023/06/11 01:08:59;;;;;;;6.50;2.30;;;17.60;99.90;;;;;;5076028;28;20238;-60
2023/06/11 01:11:35;;;;;;;4.37;2.07;;;17.60;99.90;;;;;;5079294;28;20602;-60
2023/06/11 01:14:13;;;;;;;5.80;2.13;;;17.50;99.90;;;;;;5087664;28;20308;-61
2023/06/11 01:16:46;;;;;;;8.20;2.40;;;17.50;99.90;;;;;;5084826;28;20225;-60
2023/06/11 01:19:32;;;;;;;3.67;2.13;;;17.40;99.90;;;;;;5099141;28;20251;-61
2023/06/11 01:22:08;;;;;;;4.33;2.20;;;17.40;99.90;;;;;;5095515;28;20246;-61
2023/06/11 01:24:53;;;;;;;6.17;2.27;;;17.30;99.90;;;;;;5095602;28;20685;-60
2023/06/11 01:27:32;;;;;;;4.97;2.20;;;17.40;99.90;;;;;;5081789;28;20215;-61
2023/06/11 01:30:05;;;;;;;9.00;2.30;;;17.40;99.90;;;;;;5078948;28;20223;-61
2023/06/11 01:32:33;;;;;;;3.93;2.10;;;17.30;99.90;;;;;;5077912;28;20715;-61
2023/06/11 01:35:05;;;;;;;5.17;2.33;;;17.30;99.90;;;;;;5063636;28;20661;-61
2023/06/11 01:37:45;;;;;;;4.50;2.20;;;17.30;99.90;;;;;;5078300;28;20288;-61
2023/06/11 01:40:16;;;;;;;4.47;2.17;;;17.20;99.90;;;;;;5073979;28;20689;-60
2023/06/11 01:42:51;;;;;;;3.93;2.10;;;17.20;99.90;;;;;;5077483;28;20234;-61
2023/06/11 01:45:21;;;;;;;4.27;2.30;;;17.10;99.90;;;;;;5082218;28;20273;-61
2023/06/11 01:47:50;;;;;;;4.10;2.33;;;17.10;99.90;;;;;;5089990;28;20224;-60
2023/06/11 01:50:18;;;;;;;5.47;2.53;;;17.10;99.90;;;;;;5099607;28;20236;-60
2023/06/11 01:52:47;;;;;;;4.33;2.40;;;17.00;99.90;;;;;;5099724;28;20223;-61
2023/06/11 01:55:16;;;;;;;4.33;1.93;;;17.00;99.90;;;;;;5070921;28;20228;-61
2023/06/11 01:57:46;;;;;;;3.93;2.10;;;17.00;99.90;;;;;;5069242;28;20268;-61
2023/06/11 02:00:15;;;;;;;5.47;2.50;;;16.90;99.90;;;;;;5084364;28;20221;-61
2023/06/11 02:02:48;;;;;;;5.67;2.47;;;16.90;99.90;;;;;;5095379;28;20227;-61
2023/06/11 02:05:18;;;;;;;5.03;2.00;;;16.90;99.90;;;;;;5078822;28;20215;-59
2023/06/11 02:07:47;;;;;;;4.13;2.30;;;17.00;99.90;;;;;;5078316;28;20630;-61
2023/06/11 02:10:15;;;;;;;4.40;2.30;;;16.90;99.90;;;;;;5085203;28;20250;-61
2023/06/11 02:12:44;;;;;;;6.70;1.80;;;16.90;99.90;;;;;;5076200;28;20232;-61
2023/06/11 02:15:12;;;;;;;5.73;2.10;;;16.70;99.90;;;;;;5073571;28;20314;-61
2023/06/11 02:17:41;;;;;;;5.50;2.00;;;16.70;99.90;;;;;;5089355;28;20255;-61
2023/06/11 02:20:14;;;;;;;6.03;2.60;;;16.70;99.90;;;;;;5099128;28;20687;-60
2023/06/11 02:22:42;;;;;;;4.87;1.77;;;16.70;99.90;;;;;;5117541;28;20271;-60
2023/06/11 02:25:10;;;;;;;5.20;2.20;;;16.70;99.90;;;;;;5095957;28;20238;-61
2023/06/11 02:27:39;;;;;;;3.90;2.00;;;16.60;99.90;;;;;;5097038;28;20285;-60
2023/06/11 02:30:08;;;;;;;2.93;2.10;;;16.60;99.90;;;;;;5079137;28;20235;-61
2023/06/11 02:32:36;;;;;;;3.57;1.90;;;16.60;99.90;;;;;;5078286;28;20230;-61
2023/06/11 02:35:05;;;;;;;2.40;1.83;;;16.60;99.90;;;;;;5063777;28;20255;-61
2023/06/11 02:37:35;;;;;;;4.10;2.03;;;16.70;99.90;;;;;;5096476;28;20215;-61
2023/06/11 02:40:03;;;;;;;4.30;2.17;;;16.60;99.90;;;;;;5072442;28;20261;-61
2023/06/11 02:42:32;;;;;;;2.70;2.00;;;16.60;99.90;;;;;;5097499;28;20714;-61
2023/06/11 02:45:00;;;;;;;4.70;1.97;;;16.60;99.90;;;;;;5081968;28;20317;-61
2023/06/11 02:47:28;;;;;;;4.13;1.87;;;16.60;99.90;;;;;;5109305;28;20218;-60
2023/06/11 02:49:57;;;;;;;4.97;2.13;;;16.50;99.90;;;;;;5097287;28;20234;-60
2023/06/11 02:52:25;;;;;;;5.80;2.20;;;16.50;99.90;;;;;;5097647;28;20230;-60
2023/06/11 02:54:54;;;;;;;5.80;2.30;;;16.60;99.90;;;;;;5077402;28;20234;-61
2023/06/11 02:57:22;;;;;;;6.77;1.90;;;16.50;99.90;;;;;;5097701;28;20313;-61
2023/06/11 02:59:50;;;;;;;4.77;2.40;;;16.50;99.90;;;;;;5097682;28;20227;-60
2023/06/11 03:02:18;;;;;;;4.97;2.23;;;16.40;99.90;;;;;;5077056;28;20232;-60
2023/06/11 03:04:46;;;;;;;4.47;2.10;;;16.30;99.90;;;;;;5078361;28;20223;-60
2023/06/11 03:07:15;;;;;;;6.90;1.93;;;16.30;99.90;;;;;;5079736;28;20214;-60
2023/06/11 03:09:43;;;;;;;2.90;1.80;;;16.30;99.90;;;;;;5094889;28;20214;-60
2023/06/11 03:12:12;;;;;;;3.67;2.20;;;16.40;99.90;;;;;;5089001;28;20239;-61
2023/06/11 03:14:41;;;;;;;5.60;2.13;;;16.30;99.90;;;;;;5073149;28;20646;-60
2023/06/11 03:17:09;;;;;;;5.27;2.17;;;16.30;99.90;;;;;;5105269;28;20250;-61
2023/06/11 03:19:37;;;;;;;7.13;2.43;;;16.20;99.90;;;;;;5095819;28;20246;-61
2023/06/11 03:22:06;;;;;;;4.87;2.10;;;16.20;99.90;;;;;;5072906;28;20669;-61
2023/06/11 03:24:34;;;;;;;4.67;2.20;;;16.20;99.90;;;;;;5068623;28;20227;-60
2023/06/11 03:27:13;;;;;;;4.90;2.10;;;16.30;99.90;;;;;;5075333;28;20230;-61
2023/06/11 03:29:41;;;;;;;2.73;1.90;;;16.20;99.90;;;;;;5077974;28;20250;-60
2023/06/11 03:32:10;;;;;;;5.33;2.10;;;16.20;99.90;;;;;;5072217;28;20224;-60
2023/06/11 03:34:42;;;;;;;3.40;2.00;;;16.20;99.90;;;;;;5080369;28;20227;-60
2023/06/11 03:37:11;;;;;;;4.00;2.27;;;16.20;99.90;;;;;;5080074;28;20220;-60
2023/06/11 03:39:39;;;;;;;5.70;2.13;;;16.10;99.90;;;;;;5081195;28;20716;-60
2023/06/11 03:42:08;;;;;;;6.47;2.50;;;16.10;99.90;;;;;;5061723;28;20801;-60
2023/06/11 03:44:38;;;;;;;3.53;1.90;;;16.10;99.90;;;;;;5060690;28;20224;-60
2023/06/11 03:47:09;;;;;;;4.57;2.17;;;16.10;99.90;;;;;;5058686;28;20229;-60
2023/06/11 03:49:37;;;;;;;5.80;2.40;;;16.10;99.90;;;;;;5067984;28;20219;-60
2023/06/11 03:52:06;;;;;;;4.77;2.10;;;16.10;99.90;;;;;;5080670;28;20310;-60
2023/06/11 03:54:34;;;;;;;3.10;2.20;;;16.10;99.90;;;;;;5077640;28;20255;-60
2023/06/11 03:57:02;;;;;;;8.33;2.73;;;16.10;99.90;;;;;;5074430;28;20227;-60
2023/06/11 03:59:30;;;;;;;4.80;2.50;;;16.10;99.90;;;;;;5079872;28;20226;-60
2023/06/11 04:02:00;;;;;;;5.20;2.33;;;16.10;99.90;;;;;;5074921;28;20246;-60
2023/06/11 04:04:29;;;;;;;2.90;2.03;;;16.10;99.90;;;;;;5064339;28;20228;-61
2023/06/11 04:06:57;;;;;;;3.77;2.07;;;16.20;99.90;;;;;;5079704;28;20227;-61
2023/06/11 04:09:26;;;;;;;5.07;2.17;;;16.10;99.90;;;;;;5078711;28;20583;-58
2023/06/11 04:11:54;;;;;;;5.53;2.30;;;16.10;99.90;;;;;;5066775;28;20232;-60
2023/06/11 04:14:23;;;;;;;6.70;2.07;;;16.10;99.90;;;;;;5078202;28;20257;-60
2023/06/11 04:16:51;;;;;;;5.33;2.47;;;16.10;99.90;;;;;;5075471;28;20228;-60
2023/06/11 04:19:20;;;;;;;4.80;2.47;;;16.10;99.90;;;;;;5058619;28;20245;-60
2023/06/11 04:21:49;;;;;;;3.67;2.03;;;16.10;99.90;;;;;;5058591;28;20228;-60
2023/06/11 04:24:17;;;;;;;4.67;2.60;;;16.10;99.90;;;;;;5059884;28;20256;-60
2023/06/11 04:26:47;;;;;;;4.60;2.20;;;16.10;99.90;;;;;;5067531;28;20235;-60
2023/06/11 04:29:18;;;;;;;5.33;2.20;;;16.10;99.90;;;;;;5078618;28;20243;-60
2023/06/11 04:31:50;;;;;;;7.03;2.27;;;16.20;99.90;;;;;;5077662;28;20227;-60
2023/06/11 04:34:28;;;;;;;4.90;2.30;;;16.20;99.90;;;;;;5080257;28;20649;-60
2023/06/11 04:36:58;;;;;;;5.17;2.40;;;16.30;99.90;;;;;;5076819;28;20231;-61
2023/06/11 04:39:28;;;;;;;4.77;2.40;;;16.40;99.90;;;;;;5069362;28;20250;-61
2023/06/11 04:41:58;;;;;;;5.57;2.67;;;16.30;99.90;;;;;;5058761;28;20256;-60
2023/06/11 04:44:28;;;;;;;4.53;2.33;;;16.50;99.90;;;;;;5067047;28;20322;-60
2023/06/11 04:46:57;;;;;;;4.37;2.03;;;16.60;99.90;;;;;;5077557;28;20230;-60
2023/06/11 04:49:30;;;;;;;5.87;2.30;;;16.70;99.90;;;;;;5075522;28;20247;-60
2023/06/11 04:51:59;;;;;;;5.50;2.30;;;16.70;99.90;;;;;;5079078;28;20216;-60
2023/06/11 04:54:28;;;;;;;6.00;2.30;;;16.70;99.90;;;;;;5076258;28;20320;-60
2023/06/11 04:57:01;;;;;;;4.63;2.03;;;16.70;99.90;;;;;;5058172;28;20228;-60
2023/06/11 04:59:30;;;;;;;5.10;2.30;;;16.80;99.90;;;;;;5056490;28;20243;-61
2023/06/11 05:01:59;;;;;;;7.03;2.37;;;17.00;99.90;;;;;;5067739;28;20627;-60
2023/06/11 05:04:31;;;;;;;4.13;2.17;;;17.00;99.90;;;;;;5076597;28;20306;-60
2023/06/11 05:07:00;;;;;;;4.67;2.30;;;17.20;99.90;;;;;;5078505;28;20265;-60
2023/06/11 05:09:31;;;;;;;5.63;2.33;;;17.10;99.90;;;;;;5077351;28;20252;-60
2023/06/11 05:11:59;;;;;;;4.57;2.07;;;17.30;99.90;;;;;;5060604;28;20588;-60
2023/06/11 05:14:29;;;;;;;6.60;2.33;;;17.40;99.90;;;;;;5084213;28;20270;-60
2023/06/11 05:16:59;;;;;;;3.10;2.20;;;17.50;99.90;;;;;;5077625;28;20231;-60
2023/06/11 05:19:30;;;;;;;3.43;2.43;;;17.60;99.90;;;;;;5076700;28;20252;-61
2023/06/11 05:22:00;;;;;;;4.33;2.50;;;17.70;99.90;;;;;;5077392;28;20227;-61
2023/06/11 05:24:29;;;;;;;3.83;2.27;;;17.70;99.90;;;;;;5076988;28;20235;-60
2023/06/11 05:27:00;;;;;;;5.27;2.43;;;17.70;99.90;;;;;;5073144;28;20233;-60
2023/06/11 05:29:31;;;;;;;4.53;2.50;;;17.80;99.90;;;;;;5077107;28;20219;-59
2023/06/11 05:32:00;;;;;;;3.50;2.60;;;17.90;99.90;;;;;;5068925;28;20752;-60
2023/06/11 05:34:30;;;;;;;3.57;2.13;;;18.00;99.90;;;;;;5076563;28;20225;-60
2023/06/11 05:37:03;;;;;;;4.80;2.20;;;18.00;99.90;;;;;;5077416;28;20712;-60
2023/06/11 05:39:32;;;;;;;5.13;2.50;;;18.10;99.90;;;;;;5076950;28;20595;-60
2023/06/11 05:42:01;;;;;;;4.77;2.13;;;18.20;99.90;;;;;;5069652;28;20255;-60
2023/06/11 05:44:31;;;;;;;6.43;2.27;;;18.40;99.90;;;;;;5064203;28;20228;-58
2023/06/11 05:47:00;;;;;;;4.73;2.50;;;18.50;99.90;;;;;;5076888;28;20280;-60
2023/06/11 05:49:31;;;;;;;3.90;2.30;;;18.80;99.90;;;;;;5074691;28;20261;-59
2023/06/11 05:51:59;;;;;;;4.63;2.37;;;19.00;99.90;;;;;;5074794;28;20631;-61
2023/06/11 05:54:27;;;;;;;4.20;2.20;;;19.10;99.90;;;;;;5075518;28;20232;-61
2023/06/11 05:56:57;;;;;;;5.83;2.30;;;19.20;99.90;;;;;;5066602;28;20221;-60
2023/06/11 05:59:25;;;;;;;7.03;2.00;;;19.40;99.90;;;;;;5069394;28;20228;-60
2023/06/11 06:01:53;;;;;;;3.83;2.40;;;19.50;99.90;;;;;;5071492;28;20238;-60
2023/06/11 06:04:23;;;;;;;4.73;2.57;;;19.50;99.90;;;;;;5072046;28;20249;-60
2023/06/11 06:06:52;;;;;;;3.83;2.30;;;19.80;99.90;;;;;;5074126;28;20593;-60
2023/06/11 06:09:20;;;;;;;6.23;2.50;;;19.80;99.90;;;;;;5074709;28;20210;-60
2023/06/11 06:11:48;;;;;;;7.13;2.60;;;20.00;99.90;;;;;;5071590;28;20689;-61
2023/06/11 06:14:17;;;;;;;3.00;2.40;;;20.00;99.90;;;;;;5071762;28;20241;-60
2023/06/11 06:16:45;;;;;;;5.70;2.50;;;20.10;99.90;;;;;;5073533;28;20233;-60
2023/06/11 06:19:17;;;;;;;3.90;2.63;;;20.10;99.90;;;;;;5072673;28;20234;-60
2023/06/11 06:21:47;;;;;;;4.60;2.30;;;20.10;99.90;;;;;;5072138;28;20234;-61
2023/06/11 06:24:16;;;;;;;5.03;2.27;;;19.90;99.90;;;;;;5072781;28;20225;-60
2023/06/11 06:26:45;;;;;;;4.87;2.63;;;20.20;99.90;;;;;;5069454;28;21052;-60
2023/06/11 06:29:13;;;;;;;4.40;2.40;;;20.20;99.90;;;;;;5070474;28;20241;-60
2023/06/11 06:31:41;;;;;;;4.17;2.40;;;20.40;99.90;;;;;;5067471;28;20701;-60
2023/06/11 06:34:10;;;;;;;6.37;2.53;;;20.60;99.90;;;;;;5072662;28;20586;-61
2023/06/11 06:36:38;;;;;;;4.83;2.50;;;21.00;99.90;;;;;;5072419;28;20281;-60
2023/06/11 06:39:08;;;;;;;5.63;2.73;;;21.30;99.90;;;;;;5072453;28;20718;-60
2023/06/11 06:41:38;;;;;;;4.63;2.57;;;21.00;99.90;;;;;;5071503;28;20269;-59
2023/06/11 06:44:11;;;;;;;3.90;2.77;;;21.20;99.90;;;;;;5069119;28;20222;-60
2023/06/11 06:46:39;;;;;;;4.37;2.60;;;21.20;99.90;;;;;;5071821;28;20216;-60
2023/06/11 06:49:08;;;;;;;5.43;2.80;;;21.10;99.90;;;;;;5074059;28;20221;-60
2023/06/11 06:51:37;;;;;;;7.53;3.30;;;21.20;99.90;;;;;;5075561;28;20223;-60
2023/06/11 06:54:06;;;;;;;4.13;2.83;;;21.10;99.90;;;;;;5074653;28;20223;-60
2023/06/11 06:56:36;;;;;;;5.17;2.90;;;21.20;99.90;;;;;;5071286;28;20276;-60
2023/06/11 06:59:06;;;;;;;5.23;2.67;;;21.50;99.90;;;;;;5073415;28;20237;-60
2023/06/11 07:01:36;;;;;;;4.67;2.80;;;21.60;99.90;;;;;;5070454;28;20224;-61
2023/06/11 07:04:05;;;;;;;3.17;2.70;;;21.90;99.90;;;;;;5073580;28;20261;-60
2023/06/11 07:06:33;;;;;;;6.43;3.40;;;22.10;99.90;;;;;;5073437;28;20240;-60
2023/06/11 07:09:03;;;;;;;7.57;3.20;;;22.30;99.90;;;;;;5075067;28;20219;-61
2023/06/11 07:11:31;;;;;;;4.20;2.70;;;22.70;99.90;;;;;;5069477;28;20222;-60
2023/06/11 07:14:00;;;;;;;3.03;2.60;;;22.90;99.90;;;;;;5073274;28;20641;-60
2023/06/11 07:16:30;;;;;;;7.47;3.17;;;23.20;99.90;;;;;;5073168;28;20223;-60
2023/06/11 07:19:01;;;;;;;4.87;2.73;;;23.40;99.90;;;;;;5074430;28;20368;-60
2023/06/11 07:21:30;;;;;;;4.83;2.80;;;23.60;99.90;;;;;;5075353;28;20302;-61
2023/06/11 07:23:58;;;;;;;4.20;3.00;;;23.60;99.90;;;;;;5073144;28;20227;-61
2023/06/11 07:26:27;;;;;;;6.50;3.23;;;23.80;99.90;;;;;;5073056;28;20246;-61
2023/06/11 07:28:56;;;;;;;4.07;2.80;;;23.90;99.90;;;;;;5074691;28;20250;-61
2023/06/11 07:31:25;;;;;;;6.40;3.33;;;24.10;99.90;;;;;;5073559;28;20225;-61
2023/06/11 07:33:55;;;;;;;6.73;3.30;;;24.50;99.90;;;;;;5074920;28;20230;-61
2023/06/11 07:36:23;;;;;;;4.63;3.00;;;24.80;99.90;;;;;;5074636;28;20303;-61
2023/06/11 07:38:51;;;;;;;5.57;3.00;;;24.60;99.90;;;;;;5075655;28;20243;-61
2023/06/11 07:41:20;;;;;;;4.73;3.00;;;24.80;99.90;;;;;;5080082;28;20239;-61
2023/06/11 07:43:50;;;;;;;5.07;2.97;;;25.20;99.90;;;;;;5075718;28;20306;-61
2023/06/11 07:46:19;;;;;;;6.37;3.00;;;25.30;99.90;;;;;;5069522;28;20317;-60
2023/06/11 07:48:48;;;;;;;13.17;3.10;;;25.70;99.90;;;;;;5073582;28;20236;-61
2023/06/11 07:51:20;;;;;;;5.33;3.30;;;26.10;99.90;;;;;;5069201;28;20589;-61
2023/06/11 07:53:50;;;;;;;7.23;3.30;;;26.20;99.90;;;;;;5069137;28;20233;-61
2023/06/11 07:56:18;;;;;;;8.30;3.20;;;26.50;99.90;;;;;;5072851;28;20217;-61
2023/06/11 07:58:46;;;;;;;5.03;3.47;;;26.60;99.90;;;;;;5064116;28;20586;-60
2023/06/11 08:01:15;;;;;;;6.10;3.07;;;26.80;99.90;;;;;;5059684;28;20244;-59
2023/06/11 08:03:43;;;;;;;3.17;2.87;;;27.20;99.90;;;;;;5061833;28;20233;-60
2023/06/11 08:06:11;;;;;;;6.80;3.00;;;27.20;99.90;;;;;;5062728;28;20233;-60
2023/06/11 08:08:40;;;;;;;4.90;3.10;;;27.10;98.40;;;;;;5065084;28;20668;-59
2023/06/11 08:11:09;;;;;;;5.93;3.00;;;27.10;99.30;;;;;;5064565;28;20304;-60
2023/06/11 08:13:38;;;;;;;6.67;3.23;;;27.50;98.70;;;;;;5064509;28;20234;-59
2023/06/11 08:16:07;;;;;;;5.37;3.03;;;27.50;97.70;;;;;;5064378;28;20285;-59
2023/06/11 08:18:35;;;;;;;6.17;2.90;;;27.50;97.60;;;;;;5071353;28;20748;-59
2023/06/11 08:21:05;;;;;;;3.80;2.80;;;27.60;98.50;;;;;;5083827;28;20230;-60
2023/06/11 08:23:36;;;;;;;5.00;2.77;;;27.90;97.80;;;;;;5082204;28;20226;-60
2023/06/11 08:26:06;;;;;;;5.70;3.00;;;28.20;97.60;;;;;;5080636;28;20275;-61
2023/06/11 08:28:36;;;;;;;9.43;3.00;;;28.30;97.80;;;;;;5080652;28;20535;-60
2023/06/11 08:31:05;;;;;;;6.47;3.30;;;28.40;97.00;;;;;;5081015;28;20245;-60
2023/06/11 08:33:34;;;;;;;7.63;3.00;;;28.40;96.70;;;;;;5081396;28;20233;-60
2023/06/11 08:36:03;;;;;;;8.93;3.17;;;28.50;95.00;;;;;;5082408;28;20229;-60
2023/06/11 08:38:31;;;;;;;9.90;2.97;;;28.70;96.00;;;;;;5079485;28;20241;-60
2023/06/11 08:40:59;;;;;;;9.67;3.47;;;28.80;96.00;;;;;;5080231;28;20230;-60
2023/06/11 08:43:29;;;;;;;6.93;3.57;;;29.00;95.30;;;;;;5081956;28;20590;-60
2023/06/11 08:45:57;;;;;;;4.90;2.80;;;28.90;94.90;;;;;;5083248;28;20650;-60
2023/06/11 08:48:29;;;;;;;4.47;2.80;;;29.00;94.40;;;;;;5081059;28;21136;-60
2023/06/11 08:51:00;;;;;;;3.90;3.30;;;29.20;94.50;;;;;;5059638;28;20235;-59
2023/06/11 08:53:28;;;;;;;4.07;3.10;;;29.30;93.60;;;;;;5084994;28;20218;-60
2023/06/11 08:55:57;;;;;;;6.27;3.20;;;29.30;94.50;;;;;;5084327;28;21090;-59
2023/06/11 08:58:26;;;;;;;5.73;2.90;;;29.50;93.90;;;;;;5081042;28;20229;-60
2023/06/11 09:00:56;;;;;;;8.70;2.83;;;29.70;93.20;;;;;;5078809;28;20289;-59
2023/06/11 09:03:24;;;;;;;4.87;3.20;;;29.50;93.50;;;;;;5081088;28;21177;-59
2023/06/11 09:05:52;;;;;;;5.10;3.20;;;29.70;92.90;;;;;;5081091;28;20229;-59
2023/06/11 09:08:20;;;;;;;4.67;3.13;;;29.90;92.30;;;;;;5080157;28;20225;-59
2023/06/11 09:10:49;;;;;;;6.50;2.80;;;30.10;93.00;;;;;;5083211;28;20227;-60
2023/06/11 09:13:18;;;;;;;6.90;3.60;;;30.20;93.00;;;;;;5083380;28;20237;-60
2023/06/11 09:15:52;;;;;;;6.50;3.60;;;30.20;92.40;;;;;;5079864;28;20327;-59
2023/06/11 09:18:22;;;;;;;5.23;3.30;;;30.50;92.20;;;;;;5077609;28;20724;-60
2023/06/11 09:20:52;;;;;;;4.73;2.90;;;30.90;92.30;;;;;;5080115;28;20539;-60
2023/06/11 09:23:27;;;;;;;4.60;3.23;;;31.00;92.30;;;;;;5080993;28;20220;-60
2023/06/11 09:25:59;;;;;;;4.47;3.07;;;31.30;92.30;;;;;;5079795;28;20226;-60
2023/06/11 09:28:31;;;;;;;3.70;3.10;;;31.20;91.60;;;;;;5077884;28;20227;-60
2023/06/11 09:31:01;;;;;;;4.60;3.27;;;31.00;91.20;;;;;;5080430;28;20272;-58
2023/06/11 09:33:32;;;;;;;6.03;3.17;;;31.00;90.80;;;;;;5083042;28;20305;-60
2023/06/11 09:36:01;;;;;;;7.60;3.23;;;31.10;90.30;;;;;;5084065;28;20224;-60
2023/06/11 09:38:34;;;;;;;5.90;2.90;;;30.90;90.50;;;;;;5082419;28;20257;-60
2023/06/11 09:41:05;;;;;;;9.40;3.37;;;31.10;91.20;;;;;;5083141;28;20651;-60
2023/06/11 09:43:35;;;;;;;4.30;2.90;;;31.20;90.60;;;;;;5083781;28;20283;-61
2023/06/11 09:46:05;;;;;;;5.67;3.60;;;31.40;91.20;;;;;;5083596;28;20246;-60
2023/06/11 09:48:34;;;;;;;4.60;2.83;;;31.60;90.00;;;;;;5082693;28;20276;-60
2023/06/11 09:51:03;;;;;;;5.80;2.87;;;31.60;90.50;;;;;;5084050;28;20232;-60
2023/06/11 09:53:32;;;;;;;5.80;3.17;;;31.50;90.50;;;;;;5083469;28;20690;-60
2023/06/11 09:56:04;;;;;;;5.97;3.17;;;31.70;90.90;;;;;;5083990;28;20240;-60
2023/06/11 09:58:40;;;;;;;5.70;2.97;;;31.90;90.70;;;;;;5082413;28;20227;-60
2023/06/11 10:01:09;;;;;;;5.57;3.10;;;31.90;89.80;;;;;;5082429;28;20236;-61
2023/06/11 10:03:39;;;;;;;4.73;3.00;;;31.90;89.10;;;;;;5083589;28;20314;-60
2023/06/11 10:06:11;;;;;;;3.20;2.80;;;31.90;87.70;;;;;;5081867;28;20316;-60
2023/06/11 10:08:48;;;;;;;4.23;2.87;;;31.70;88.20;;;;;;5078244;28;20224;-60
2023/06/11 10:11:20;;;;;;;4.33;2.90;;;31.60;86.10;;;;;;5079830;28;20234;-60
2023/06/11 10:13:57;;;;;;;5.73;3.03;;;31.70;86.70;;;;;;5079328;28;20219;-58
2023/06/11 10:16:26;;;;;;;5.70;3.00;;;31.80;86.70;;;;;;5079142;28;20238;-59
2023/06/11 10:19:06;;;;;;;5.40;3.27;;;31.80;86.90;;;;;;5077820;28;20252;-60
2023/06/11 10:21:37;;;;;;;4.00;3.13;;;31.60;86.20;;;;;;5079518;28;20240;-59
2023/06/11 10:24:06;;;;;;;4.27;3.10;;;31.80;85.70;;;;;;5081874;28;20221;-59
2023/06/11 10:26:35;;;;;;;5.43;3.27;;;31.70;84.70;;;;;;5087311;28;20696;-59
2023/06/11 10:29:10;;;;;;;6.47;3.10;;;31.60;84.90;;;;;;5086116;28;20220;-60
2023/06/11 10:31:41;;;;;;;6.57;3.13;;;31.80;84.60;;;;;;5086030;28;20234;-61
2023/06/11 10:34:14;;;;;;;5.23;3.00;;;31.60;84.70;;;;;;5086801;28;20221;-60
2023/06/11 10:36:42;;;;;;;8.43;3.20;;;31.60;84.60;;;;;;5066014;28;20278;-60
2023/06/11 10:39:14;;;;;;;6.60;3.23;;;31.70;82.10;;;;;;5083719;28;20228;-60
2023/06/11 10:41:43;;;;;;;5.77;3.07;;;31.50;76.90;;;;;;5084942;28;20229;-59
2023/06/11 10:44:11;;;;;;;6.73;3.00;;;31.40;77.70;;;;;;5086837;28;20284;-60
2023/06/11 10:46:48;;;;;;;4.70;3.00;;;31.20;78.20;;;;;;5085050;28;20233;-60
2023/06/11 10:49:20;;;;;;;5.80;3.10;;;31.00;76.60;;;;;;5088449;28;20263;-60
2023/06/11 10:51:50;;;;;;;5.17;2.93;;;31.10;79.00;;;;;;5085207;28;20784;-59
2023/06/11 10:54:25;;;;;;;5.03;3.17;;;31.30;78.30;;;;;;5085308;28;20737;-60
2023/06/11 10:56:53;;;;;;;4.33;2.93;;;31.60;77.30;;;;;;5083485;28;20662;-59
2023/06/11 10:59:22;;;;;;;7.33;3.23;;;31.60;70.50;;;;;;5083458;28;20222;-60
2023/06/11 11:01:53;;;;;;;3.50;3.00;;;31.40;71.60;;;;;;5061421;28;20238;-59
2023/06/11 11:04:23;;;;;;;3.90;3.27;;;31.40;72.30;;;;;;5086697;28;20701;-59
2023/06/11 11:06:52;;;;;;;4.37;2.77;;;31.40;70.80;;;;;;5085338;28;20226;-60
2023/06/11 11:09:22;;;;;;;4.63;2.80;;;31.20;70.20;;;;;;5085770;28;20231;-59
2023/06/11 11:11:52;;;;;;;3.00;2.70;;;31.10;70.90;;;;;;5086806;28;20223;-60
2023/06/11 11:14:20;;;;;;;5.27;2.97;;;31.40;72.40;;;;;;5086344;28;20225;-60
2023/06/11 11:16:49;;;;;;;5.70;3.10;;;31.40;71.70;;;;;;5085582;28;20276;-60
2023/06/11 11:19:26;;;;;;;3.70;3.17;;;31.70;72.40;;;;;;5085791;28;20361;-61
2023/06/11 11:21:55;;;;;;;4.13;2.90;;;31.40;70.00;;;;;;5085364;28;21030;-60
2023/06/11 11:24:23;;;;;;;4.63;2.87;;;31.50;69.20;;;;;;5088647;28;20686;-60
2023/06/11 11:26:51;;;;;;;4.90;3.00;;;31.80;70.70;;;;;;5084929;28;20610;-60
2023/06/11 11:29:19;;;;;;;3.53;2.70;;;32.20;70.60;;;;;;5085764;28;20703;-58
2023/06/11 11:31:48;;;;;;;6.57;3.27;;;32.10;69.10;;;;;;5082701;28;20243;-59
2023/06/11 11:34:17;;;;;;;4.63;2.97;;;32.00;71.50;;;;;;5082951;28;20707;-59
2023/06/11 11:36:50;;;;;;;8.10;3.10;;;31.60;70.70;;;;;;5082868;28;20896;-59
2023/06/11 11:39:18;;;;;;;3.90;2.87;;;32.10;72.10;;;;;;5082771;28;20227;-59
2023/06/11 11:41:47;;;;;;;3.00;2.80;;;32.30;68.50;;;;;;5082926;28;20260;-59
2023/06/11 11:44:16;;;;;;;3.10;2.70;;;32.00;68.90;;;;;;5065762;28;20235;-60
2023/06/11 11:46:44;;;;;;;3.50;3.00;;;31.70;68.80;;;;;;5082281;28;20226;-59
2023/06/11 11:49:13;;;;;;;5.23;2.93;;;32.00;69.20;;;;;;5082139;28;20581;-60
2023/06/11 11:51:45;;;;;;;3.43;3.13;;;32.30;68.20;;;;;;5098416;28;20684;-60
2023/06/11 11:54:15;;;;;;;4.53;3.10;;;32.30;66.20;;;;;;5091563;28;20300;-60
2023/06/11 11:56:43;;;;;;;5.53;3.13;;;32.30;67.20;;;;;;5093682;28;20227;-60
2023/06/11 11:59:18;;;;;;;7.30;3.40;;;31.80;66.30;;;;;;5094932;28;20306;-60
2023/06/11 12:01:56;;;;;;;4.57;2.77;;;31.60;67.00;;;;;;5089274;28;20259;-60
2023/06/11 12:04:35;;;;;;;4.27;3.10;;;31.30;67.80;;;;;;5094202;28;20222;-59
2023/06/11 12:07:04;;;;;;;7.07;3.40;;;31.00;69.50;;;;;;5086310;28;20223;-60
2023/06/11 12:09:35;;;;;;;4.70;3.10;;;30.50;68.20;;;;;;5094406;28;20224;-60
2023/06/11 12:12:03;;;;;;;4.17;3.07;;;30.30;67.20;;;;;;5094231;28;20433;-60
2023/06/11 12:14:33;;;;;;;4.03;3.20;;;30.30;65.30;;;;;;5092921;28;20223;-60
2023/06/11 12:17:01;;;;;;;3.53;3.00;;;30.30;63.80;;;;;;5082966;28;20586;-60
2023/06/11 12:19:31;;;;;;;4.07;3.37;;;30.10;63.20;;;;;;5086753;28;20231;-60
2023/06/11 12:21:59;;;;;;;5.13;3.30;;;30.10;64.10;;;;;;5086245;28;20311;-60
2023/06/11 12:24:28;;;;;;;5.67;3.27;;;30.10;64.60;;;;;;5089193;28;20584;-60
2023/06/11 12:26:59;;;;;;;6.63;3.60;;;30.10;66.30;;;;;;5094160;28;20229;-60
2023/06/11 12:29:28;;;;;;;6.40;3.37;;;30.10;66.50;;;;;;5094221;28;20683;-60
2023/06/11 12:31:56;;;;;;;6.90;3.50;;;30.10;66.20;;;;;;5087783;28;20534;-60
2023/06/11 12:34:24;;;;;;;4.03;3.63;;;30.20;67.40;;;;;;5094039;28;20214;-60
2023/06/11 12:36:52;;;;;;;4.63;3.50;;;30.10;65.00;;;;;;5094501;28;20303;-60
2023/06/11 12:39:21;;;;;;;6.13;3.50;;;30.00;67.30;;;;;;5094175;28;20222;-60
2023/06/11 12:41:49;;;;;;;3.97;3.30;;;29.80;67.40;;;;;;5094032;28;20750;-60
2023/06/11 12:44:19;;;;;;;4.17;3.37;;;29.80;69.80;;;;;;5093926;28;20226;-60
2023/06/11 12:46:47;;;;;;;6.03;3.37;;;30.10;69.00;;;;;;5088949;28;20751;-60
2023/06/11 12:49:15;;;;;;;3.67;3.30;;;30.30;69.40;;;;;;5093666;28;20277;-60
2023/06/11 12:51:45;;;;;;;5.17;3.53;;;30.20;68.80;;;;;;5093832;28;20742;-60
2023/06/11 12:54:15;;;;;;;5.70;3.33;;;30.20;68.10;;;;;;5093827;28;20215;-60
2023/06/11 12:56:43;;;;;;;4.17;3.20;;;30.10;69.40;;;;;;5093487;28;20222;-60
2023/06/11 12:59:11;;;;;;;5.03;3.27;;;30.20;69.10;;;;;;5093810;28;20614;-60
2023/06/11 13:01:40;;;;;;;5.20;3.20;;;29.90;66.50;;;;;;5084501;28;20236;-60